Time,TemperatureF,DewpointF,PressureIn,WindDirection,WindDirectionDegrees,WindSpeedMPH,WindSpeedGustMPH,Humidity,HourlyPrecipIn,Conditions,Clouds,dailyrainin,SoftwareType,DateUTC
2013-01-10 00:01:00,37.0,26.3,30.51,SW,225,0.0,0.0,65,0.00,,,0.00,WUHU216HW,2013-01-10 05:01:00,
2013-01-10 00:03:00,37.0,26.3,30.51,SW,225,0.0,0.0,65,0.00,,,0.00,WUHU216HW,2013-01-10 05:03:00,
2013-01-10 00:08:00,36.8,25.7,30.51,SW,225,0.0,0.0,64,0.00,,,0.00,WUHU216HW,2013-01-10 05:08:00,
2013-01-10 00:13:00,36.8,25.7,30.51,SW,225,0.0,0.0,64,0.00,,,0.00,WUHU216HW,2013-01-10 05:13:00,
2013-01-10 00:18:00,36.8,25.7,30.51,SW,225,0.0,0.0,64,0.00,,,0.00,WUHU216HW,2013-01-10 05:18:00,
2013-01-10 00:23:00,36.5,25.4,30.51,SW,225,0.0,0.0,64,0.00,,,0.00,WUHU216HW,2013-01-10 05:23:00,
2013-01-10 00:28:00,36.5,25.4,30.51,SW,225,0.0,0.0,64,0.00,,,0.00,WUHU216HW,2013-01-10 05:28:00,
2013-01-10 00:33:00,36.3,25.2,30.51,SW,225,0.0,0.0,64,0.00,,,0.00,WUHU216HW,2013-01-10 05:33:00,
2013-01-10 00:38:00,36.5,25.2,30.51,SW,225,0.0,0.0,64,0.00,,,0.00,WUHU216HW,2013-01-10 05:38:00,
2013-01-10 00:43:00,36.3,25.2,30.51,SW,225,0.0,0.0,64,0.00,,,0.00,WUHU216HW,2013-01-10 05:43:00,
2013-01-10 00:48:00,36.3,25.2,30.51,SW,225,0.0,0.0,64,0.00,,,0.00,WUHU216HW,2013-01-10 05:48:00,
2013-01-10 00:53:00,36.3,25.2,30.51,SW,225,0.0,0.0,64,0.00,,,0.00,WUHU216HW,2013-01-10 05:53:00,
2013-01-10 00:58:00,36.3,25.2,30.51,WSW,248,0.0,0.0,64,0.00,,,0.00,WUHU216HW,2013-01-10 05:58:00,
2013-01-10 01:03:00,36.1,25.4,30.51,WSW,248,0.0,0.0,65,0.00,,,0.00,WUHU216HW,2013-01-10 06:03:00,
2013-01-10 01:08:00,36.3,25.6,30.51,West,270,0.0,0.0,65,0.00,,,0.00,WUHU216HW,2013-01-10 06:08:00,
2013-01-10 01:13:00,36.3,25.6,30.51,West,270,0.0,0.0,65,0.00,,,0.00,WUHU216HW,2013-01-10 06:13:00,
2013-01-10 01:18:00,36.1,25.4,30.51,West,270,0.0,0.0,65,0.00,,,0.00,WUHU216HW,2013-01-10 06:18:00,
2013-01-10 01:23:00,36.3,25.4,30.52,West,270,0.0,0.0,65,0.00,,,0.00,WUHU216HW,2013-01-10 06:23:00,
2013-01-10 01:28:00,36.1,25.4,30.52,West,270,0.0,0.0,65,0.00,,,0.00,WUHU216HW,2013-01-10 06:28:00,
2013-01-10 01:33:00,35.9,25.3,30.52,West,270,0.0,0.0,65,0.00,,,0.00,WUHU216HW,2013-01-10 06:33:00,
2013-01-10 01:38:00,35.9,24.9,30.52,West,270,0.0,0.0,64,0.00,,,0.00,WUHU216HW,2013-01-10 06:38:00,
2013-01-10 01:43:00,35.9,24.9,30.52,West,270,0.0,0.0,64,0.00,,,0.00,WUHU216HW,2013-01-10 06:43:00,
2013-01-10 01:48:00,35.7,24.7,30.52,West,270,0.0,0.0,64,0.00,,,0.00,WUHU216HW,2013-01-10 06:48:00,
2013-01-10 01:53:00,35.6,24.6,30.52,West,270,0.0,0.0,64,0.00,,,0.00,WUHU216HW,2013-01-10 06:53:00,
2013-01-10 01:58:00,35.2,24.2,30.52,West,270,0.0,0.0,64,0.00,,,0.00,WUHU216HW,2013-01-10 06:58:00,
2013-01-10 02:03:00,35.2,24.2,30.52,West,270,0.0,0.0,64,0.00,,,0.00,WUHU216HW,2013-01-10 07:03:00,
2013-01-10 02:08:00,34.8,23.9,30.52,West,270,0.0,0.0,64,0.00,,,0.00,WUHU216HW,2013-01-10 07:08:00,
2013-01-10 02:13:00,34.7,23.7,30.52,West,270,0.0,0.0,64,0.00,,,0.00,WUHU216HW,2013-01-10 07:13:00,
2013-01-10 02:18:00,34.7,23.5,30.52,West,270,0.0,0.0,64,0.00,,,0.00,WUHU216HW,2013-01-10 07:18:00,
2013-01-10 02:23:00,34.5,23.5,30.52,West,270,0.0,0.0,64,0.00,,,0.00,WUHU216HW,2013-01-10 07:23:00,
2013-01-10 02:28:00,34.5,23.5,30.52,West,270,0.0,0.0,64,0.00,,,0.00,WUHU216HW,2013-01-10 07:28:00,
2013-01-10 02:33:00,34.3,23.3,30.52,West,270,0.0,0.0,64,0.00,,,0.00,WUHU216HW,2013-01-10 07:33:00,
2013-01-10 02:38:00,34.1,23.1,30.52,West,270,0.0,0.0,64,0.00,,,0.00,WUHU216HW,2013-01-10 07:38:00,
2013-01-10 02:43:00,33.9,23.3,30.52,West,270,0.0,0.0,65,0.00,,,0.00,WUHU216HW,2013-01-10 07:43:00,
2013-01-10 02:48:00,33.9,23.3,30.52,West,270,0.0,0.0,65,0.00,,,0.00,WUHU216HW,2013-01-10 07:48:00,
2013-01-10 02:53:00,33.9,23.3,30.51,West,270,0.0,0.0,65,0.00,,,0.00,WUHU216HW,2013-01-10 07:53:00,
2013-01-10 02:58:00,33.9,23.3,30.51,West,270,0.0,0.0,65,0.00,,,0.00,WUHU216HW,2013-01-10 07:58:00,
2013-01-10 03:03:00,33.8,23.1,30.51,West,270,0.0,0.0,65,0.00,,,0.00,WUHU216HW,2013-01-10 08:03:00,
2013-01-10 03:08:00,33.6,23.0,30.51,West,270,0.0,0.0,65,0.00,,,0.00,WUHU216HW,2013-01-10 08:08:00,
2013-01-10 03:13:00,33.4,22.8,30.51,West,270,0.0,0.0,65,0.00,,,0.00,WUHU216HW,2013-01-10 08:13:00,
2013-01-10 03:18:00,33.4,23.2,30.51,West,270,0.0,0.0,66,0.00,,,0.00,WUHU216HW,2013-01-10 08:18:00,
2013-01-10 03:23:00,33.4,23.2,30.51,West,270,0.0,0.0,66,0.00,,,0.00,WUHU216HW,2013-01-10 08:23:00,
2013-01-10 13:31:00,40.4,30.3,30.47,NNE,23,0.0,0.0,67,0.00,,,0.00,WUHU216HW,2013-01-10 18:31:00,
2013-01-10 13:36:00,40.4,30.3,30.46,ESE,113,1.7,1.7,67,0.00,,,0.00,WUHU216HW,2013-01-10 18:36:00,
2013-01-10 13:41:00,40.6,30.5,30.46,ENE,68,0.0,1.7,67,0.00,,,0.00,WUHU216HW,2013-01-10 18:41:00,
2013-01-10 13:46:00,40.6,30.5,30.46,North,0,0.0,0.0,67,0.00,,,0.00,WUHU216HW,2013-01-10 18:46:00,
2013-01-10 13:51:00,40.6,30.5,30.46,ESE,113,0.0,0.0,67,0.00,,,0.00,WUHU216HW,2013-01-10 18:51:00,
2013-01-10 13:56:00,40.6,30.1,30.46,East,90,0.0,0.0,66,0.00,,,0.00,WUHU216HW,2013-01-10 18:56:00,
2013-01-10 14:01:00,40.6,30.1,30.46,ENE,68,0.0,0.0,66,0.00,,,0.00,WUHU216HW,2013-01-10 19:01:00,
2013-01-10 14:06:00,40.6,30.3,30.46,East,90,0.0,0.0,66,0.00,,,0.00,WUHU216HW,2013-01-10 19:06:00,
2013-01-10 14:11:00,41.1,30.6,30.46,SE,135,0.0,0.0,66,0.00,,,0.00,WUHU216HW,2013-01-10 19:11:00,
2013-01-10 14:16:00,41.1,30.6,30.46,East,90,0.0,0.0,66,0.00,,,0.00,WUHU216HW,2013-01-10 19:16:00,
2013-01-10 14:21:00,41.1,30.6,30.46,East,90,0.0,0.0,66,0.00,,,0.00,WUHU216HW,2013-01-10 19:21:00,
2013-01-10 14:26:00,41.1,30.6,30.45,East,90,0.0,0.0,66,0.00,,,0.00,WUHU216HW,2013-01-10 19:26:00,
2013-01-10 14:31:00,41.1,30.6,30.44,ESE,113,0.0,0.0,66,0.00,,,0.00,WUHU216HW,2013-01-10 19:31:00,
2013-01-10 14:36:00,41.1,30.6,30.44,ENE,68,0.0,0.0,66,0.00,,,0.00,WUHU216HW,2013-01-10 19:36:00,
2013-01-10 14:41:00,41.0,30.4,30.44,NE,45,0.0,0.0,66,0.00,,,0.00,WUHU216HW,2013-01-10 19:41:00,
2013-01-10 14:46:00,41.0,30.4,30.43,North,0,0.0,0.2,66,0.00,,,0.00,WUHU216HW,2013-01-10 19:46:00,
2013-01-10 14:51:00,41.0,30.4,30.43,NE,45,0.0,0.2,66,0.00,,,0.00,WUHU216HW,2013-01-10 19:51:00,
2013-01-10 14:56:00,41.0,30.3,30.43,NE,45,0.0,0.0,66,0.00,,,0.00,WUHU216HW,2013-01-10 19:56:00,
2013-01-10 15:01:00,40.8,30.4,30.43,NE,45,0.0,2.0,66,0.00,,,0.00,WUHU216HW,2013-01-10 20:01:00,
2013-01-10 15:06:00,41.1,30.6,30.43,NNE,23,0.0,2.0,66,0.00,,,0.00,WUHU216HW,2013-01-10 20:06:00,
2013-01-10 15:11:00,41.1,30.6,30.42,NNE,23,0.0,0.0,66,0.00,,,0.00,WUHU216HW,2013-01-10 20:11:00,
2013-01-10 15:16:00,41.3,30.8,30.42,NE,45,0.0,0.0,66,0.00,,,0.00,WUHU216HW,2013-01-10 20:16:00,
2013-01-10 15:21:00,41.3,30.8,30.42,NE,45,0.0,0.0,66,0.00,,,0.00,WUHU216HW,2013-01-10 20:21:00,
2013-01-10 15:26:00,41.7,31.1,30.41,NE,45,0.0,0.0,66,0.00,,,0.00,WUHU216HW,2013-01-10 20:26:00,
2013-01-10 15:31:00,41.9,31.3,30.41,ENE,68,0.0,0.0,66,0.00,,,0.00,WUHU216HW,2013-01-10 20:31:00,
2013-01-10 15:36:00,41.9,30.9,30.40,ESE,113,0.0,0.0,65,0.00,,,0.00,WUHU216HW,2013-01-10 20:36:00,
2013-01-10 15:41:00,42.0,30.7,30.40,NE,45,0.0,1.3,64,0.00,,,0.00,WUHU216HW,2013-01-10 20:41:00,
2013-01-10 15:46:00,42.0,30.7,30.40,ENE,68,0.0,1.3,64,0.00,,,0.00,WUHU216HW,2013-01-10 20:46:00,
2013-01-10 15:51:00,42.2,30.9,30.40,ENE,68,0.0,0.0,64,0.00,,,0.00,WUHU216HW,2013-01-10 20:51:00,
2013-01-10 15:56:00,42.2,30.9,30.40,NE,45,0.0,0.0,64,0.00,,,0.00,WUHU216HW,2013-01-10 20:56:00,
2013-01-10 16:01:00,42.2,30.5,30.40,NE,45,0.0,0.0,63,0.00,,,0.00,WUHU216HW,2013-01-10 21:01:00,
2013-01-10 16:06:00,42.2,30.5,30.39,ENE,68,0.0,0.0,63,0.00,,,0.00,WUHU216HW,2013-01-10 21:06:00,
2013-01-10 16:11:00,42.0,30.3,30.39,ENE,68,0.0,0.0,63,0.00,,,0.00,WUHU216HW,2013-01-10 21:11:00,
2013-01-10 16:16:00,42.0,30.3,30.40,NE,45,0.0,0.0,63,0.00,,,0.00,WUHU216HW,2013-01-10 21:16:00,
2013-01-10 16:21:00,41.9,30.1,30.40,ENE,68,0.0,0.0,63,0.00,,,0.00,WUHU216HW,2013-01-10 21:21:00,
2013-01-10 16:26:00,41.9,30.1,30.40,ENE,68,0.0,0.0,63,0.00,,,0.00,WUHU216HW,2013-01-10 21:26:00,
2013-01-10 16:31:00,41.7,30.0,30.40,NE,45,0.0,0.0,63,0.00,,,0.00,WUHU216HW,2013-01-10 21:31:00,
2013-01-10 16:36:00,41.5,29.8,30.40,ENE,68,0.0,0.0,63,0.00,,,0.00,WUHU216HW,2013-01-10 21:36:00,
2013-01-10 16:41:00,41.3,29.6,30.39,ENE,68,0.0,0.0,63,0.00,,,0.00,WUHU216HW,2013-01-10 21:41:00,
2013-01-10 16:46:00,41.1,29.6,30.39,ENE,68,0.0,0.0,63,0.00,,,0.00,WUHU216HW,2013-01-10 21:46:00,
2013-01-10 16:52:00,41.1,29.5,30.39,ENE,68,0.0,0.0,63,0.00,,,0.00,WUHU216HW,2013-01-10 21:52:00,
2013-01-10 16:57:00,41.0,29.3,30.38,ENE,68,0.0,0.4,63,0.00,,,0.00,WUHU216HW,2013-01-10 21:57:00,
2013-01-10 17:02:00,40.6,28.9,30.39,ENE,68,0.0,0.4,63,0.00,,,0.00,WUHU216HW,2013-01-10 22:02:00,
2013-01-10 17:07:00,40.6,28.9,30.38,ENE,68,0.0,0.4,63,0.00,,,0.00,WUHU216HW,2013-01-10 22:07:00,
2013-01-10 17:12:00,40.4,28.8,30.38,ENE,68,0.0,0.4,63,0.00,,,0.00,WUHU216HW,2013-01-10 22:12:00,
2013-01-10 17:17:00,40.4,28.8,30.38,East,90,0.0,0.0,63,0.00,,,0.00,WUHU216HW,2013-01-10 22:17:00,
2013-01-10 17:22:00,40.1,28.4,30.38,ENE,68,0.0,0.0,63,0.00,,,0.00,WUHU216HW,2013-01-10 22:22:00,
2013-01-10 17:27:00,40.1,28.4,30.38,ENE,68,0.0,0.0,63,0.00,,,0.00,WUHU216HW,2013-01-10 22:27:00,
2013-01-10 17:32:00,39.9,28.2,30.37,ENE,68,0.0,0.0,63,0.00,,,0.00,WUHU216HW,2013-01-10 22:32:00,
2013-01-10 17:37:00,39.7,28.0,30.37,East,90,0.0,0.0,63,0.00,,,0.00,WUHU216HW,2013-01-10 22:37:00,
2013-01-10 17:42:00,39.5,28.0,30.37,ESE,113,0.0,0.0,63,0.00,,,0.00,WUHU216HW,2013-01-10 22:42:00,
2013-01-10 17:47:00,39.5,27.9,30.37,ENE,68,0.0,0.0,63,0.00,,,0.00,WUHU216HW,2013-01-10 22:47:00,
2013-01-10 17:52:00,39.5,27.9,30.37,ENE,68,0.0,0.0,63,0.00,,,0.00,WUHU216HW,2013-01-10 22:52:00,
2013-01-10 17:57:00,39.3,27.7,30.37,ENE,68,0.0,0.0,63,0.00,,,0.00,WUHU216HW,2013-01-10 22:57:00,
2013-01-10 18:02:00,39.3,27.7,30.37,ENE,68,0.0,0.0,63,0.00,,,0.00,WUHU216HW,2013-01-10 23:02:00,
2013-01-10 18:07:00,39.3,27.7,30.37,ENE,68,0.0,0.0,63,0.00,,,0.00,WUHU216HW,2013-01-10 23:07:00,
2013-01-10 18:12:00,39.3,27.7,30.37,ESE,113,0.0,0.0,63,0.00,,,0.00,WUHU216HW,2013-01-10 23:12:00,
2013-01-10 18:17:00,39.2,27.5,30.36,ESE,113,0.0,0.0,63,0.00,,,0.00,WUHU216HW,2013-01-10 23:17:00,
2013-01-10 18:22:00,38.8,27.2,30.36,ESE,113,0.0,0.0,63,0.00,,,0.00,WUHU216HW,2013-01-10 23:22:00,
2013-01-10 18:27:00,38.8,27.2,30.36,ESE,113,0.0,0.0,63,0.00,,,0.00,WUHU216HW,2013-01-10 23:27:00,
2013-01-10 18:32:00,38.8,27.2,30.36,East,90,0.0,0.0,63,0.00,,,0.00,WUHU216HW,2013-01-10 23:32:00,
2013-01-10 18:37:00,38.8,27.2,30.36,East,90,0.0,0.0,63,0.00,,,0.00,WUHU216HW,2013-01-10 23:37:00,
2013-01-10 18:42:00,38.8,27.2,30.36,East,90,0.0,0.0,63,0.00,,,0.00,WUHU216HW,2013-01-10 23:42:00,
2013-01-10 18:47:00,38.8,27.6,30.35,East,90,0.0,0.0,64,0.00,,,0.00,WUHU216HW,2013-01-10 23:47:00,
2013-01-10 18:52:00,38.8,27.6,30.35,East,90,0.0,0.0,64,0.00,,,0.00,WUHU216HW,2013-01-10 23:52:00,
2013-01-10 18:57:00,38.8,27.6,30.34,East,90,0.0,0.0,64,0.00,,,0.00,WUHU216HW,2013-01-10 23:57:00,
2013-01-10 19:02:00,38.6,27.4,30.34,East,90,0.0,0.0,64,0.00,,,0.00,WUHU216HW,2013-01-11 00:02:00,
2013-01-10 19:07:00,38.6,27.4,30.34,East,90,0.0,0.0,64,0.00,,,0.00,WUHU216HW,2013-01-11 00:07:00,
2013-01-10 19:12:00,38.6,27.4,30.34,NE,45,0.0,0.0,64,0.00,,,0.00,WUHU216HW,2013-01-11 00:12:00,
2013-01-10 19:17:00,38.4,27.4,30.34,ENE,68,0.0,0.0,64,0.00,,,0.00,WUHU216HW,2013-01-11 00:17:00,
2013-01-10 19:22:00,38.4,27.2,30.34,ENE,68,0.0,0.0,64,0.00,,,0.00,WUHU216HW,2013-01-11 00:22:00,
2013-01-10 19:27:00,38.4,27.2,30.33,ENE,68,0.0,0.0,64,0.00,,,0.00,WUHU216HW,2013-01-11 00:27:00,
2013-01-10 19:32:00,38.4,27.2,30.33,ENE,68,0.0,0.0,64,0.00,,,0.00,WUHU216HW,2013-01-11 00:32:00,
2013-01-10 19:37:00,38.4,27.2,30.33,ENE,68,0.0,0.0,64,0.00,,,0.00,WUHU216HW,2013-01-11 00:37:00,
2013-01-10 19:42:00,38.6,27.4,30.33,ENE,68,0.0,0.0,64,0.00,,,0.00,WUHU216HW,2013-01-11 00:42:00,
2013-01-10 19:47:00,38.4,27.6,30.33,ESE,113,0.0,0.0,65,0.00,,,0.00,WUHU216HW,2013-01-11 00:47:00,
2013-01-10 19:53:00,38.6,27.6,30.33,ENE,68,0.0,0.0,65,0.00,,,0.00,WUHU216HW,2013-01-11 00:53:00,
2013-01-10 19:58:00,38.6,27.8,30.33,ENE,68,0.0,0.0,65,0.00,,,0.00,WUHU216HW,2013-01-11 00:58:00,
2013-01-10 20:03:00,38.4,27.6,30.33,ENE,68,0.0,0.0,65,0.00,,,0.00,WUHU216HW,2013-01-11 01:03:00,
2013-01-10 20:08:00,38.4,27.6,30.32,ENE,68,0.0,0.0,65,0.00,,,0.00,WUHU216HW,2013-01-11 01:08:00,
2013-01-10 20:13:00,38.6,27.8,30.32,ENE,68,0.0,0.0,65,0.00,,,0.00,WUHU216HW,2013-01-11 01:13:00,
2013-01-10 20:18:00,38.6,27.8,30.32,ENE,68,0.0,0.0,65,0.00,,,0.00,WUHU216HW,2013-01-11 01:18:00,
2013-01-10 20:23:00,38.4,27.8,30.31,ENE,68,0.0,0.0,65,0.00,,,0.00,WUHU216HW,2013-01-11 01:23:00,
2013-01-10 20:28:00,38.6,27.8,30.31,ENE,68,0.0,0.0,65,0.00,,,0.00,WUHU216HW,2013-01-11 01:28:00,
2013-01-10 20:33:00,38.6,27.8,30.31,ENE,68,0.0,0.0,65,0.00,,,0.00,WUHU216HW,2013-01-11 01:33:00,
2013-01-10 20:38:00,38.6,27.8,30.31,ENE,68,0.0,0.0,65,0.00,,,0.00,WUHU216HW,2013-01-11 01:38:00,
2013-01-10 20:43:00,38.6,27.8,30.31,ENE,68,0.0,0.0,65,0.00,,,0.00,WUHU216HW,2013-01-11 01:43:00,
2013-01-10 20:48:00,38.8,27.9,30.31,ENE,68,0.0,0.0,65,0.00,,,0.00,WUHU216HW,2013-01-11 01:48:00,
2013-01-10 20:53:00,38.8,27.9,30.30,ENE,68,0.0,0.0,65,0.00,,,0.00,WUHU216HW,2013-01-11 01:53:00,
2013-01-10 20:58:00,38.6,28.2,30.30,ENE,68,0.0,0.0,66,0.00,,,0.00,WUHU216HW,2013-01-11 01:58:00,
2013-01-10 21:03:00,38.6,28.2,30.29,ENE,68,0.0,0.0,66,0.00,,,0.00,WUHU216HW,2013-01-11 02:03:00,
2013-01-10 21:08:00,38.6,28.2,30.29,ENE,68,0.0,0.0,66,0.00,,,0.00,WUHU216HW,2013-01-11 02:08:00,
2013-01-10 21:13:00,38.6,28.2,30.29,ENE,68,0.0,0.0,66,0.00,,,0.00,WUHU216HW,2013-01-11 02:13:00,
2013-01-10 21:18:00,38.6,28.2,30.28,ENE,68,0.0,0.0,66,0.00,,,0.00,WUHU216HW,2013-01-11 02:18:00,
2013-01-10 21:23:00,38.4,28.0,30.28,NE,45,0.0,0.0,66,0.00,,,0.00,WUHU216HW,2013-01-11 02:23:00,
2013-01-10 21:28:00,38.4,27.6,30.28,ENE,68,0.0,0.0,65,0.00,,,0.00,WUHU216HW,2013-01-11 02:28:00,
2013-01-10 21:33:00,38.3,27.5,30.28,ENE,68,0.0,0.0,65,0.00,,,0.00,WUHU216HW,2013-01-11 02:33:00,
2013-01-10 21:38:00,38.3,27.5,30.27,ENE,68,0.0,0.0,65,0.00,,,0.00,WUHU216HW,2013-01-11 02:38:00,
2013-01-10 21:43:00,38.3,27.8,30.27,ENE,68,0.0,0.0,66,0.00,,,0.00,WUHU216HW,2013-01-11 02:43:00,
2013-01-10 21:48:00,38.1,27.7,30.26,ENE,68,0.0,0.0,66,0.00,,,0.00,WUHU216HW,2013-01-11 02:48:00,
2013-01-10 21:53:00,38.1,27.7,30.26,ENE,68,0.0,0.0,66,0.00,,,0.00,WUHU216HW,2013-01-11 02:53:00,
2013-01-10 21:58:00,38.1,27.7,30.26,East,90,0.0,0.0,66,0.00,,,0.00,WUHU216HW,2013-01-11 02:58:00,
2013-01-10 22:03:00,38.1,27.7,30.26,ENE,68,0.0,0.0,66,0.00,,,0.00,WUHU216HW,2013-01-11 03:03:00,
2013-01-10 22:08:00,38.1,27.7,30.25,East,90,0.0,0.0,66,0.00,,,0.00,WUHU216HW,2013-01-11 03:08:00,
2013-01-10 22:13:00,38.1,27.7,30.25,East,90,0.0,0.0,66,0.00,,,0.00,WUHU216HW,2013-01-11 03:13:00,
2013-01-10 22:18:00,38.1,27.7,30.25,ENE,68,0.0,0.0,66,0.00,,,0.00,WUHU216HW,2013-01-11 03:18:00,
2013-01-10 22:23:00,38.1,27.7,30.25,ENE,68,0.0,0.0,66,0.00,,,0.00,WUHU216HW,2013-01-11 03:23:00,
2013-01-10 22:28:00,38.1,27.7,30.24,ENE,68,0.0,0.0,66,0.00,,,0.00,WUHU216HW,2013-01-11 03:28:00,
2013-01-10 22:33:00,38.1,27.7,30.23,East,90,0.0,0.0,66,0.00,,,0.00,WUHU216HW,2013-01-11 03:33:00,
2013-01-10 22:38:00,38.1,27.7,30.23,East,90,0.0,0.0,66,0.00,,,0.00,WUHU216HW,2013-01-11 03:38:00,
2013-01-10 22:43:00,38.1,27.7,30.22,ENE,68,0.0,0.0,66,0.00,,,0.00,WUHU216HW,2013-01-11 03:43:00,
2013-01-10 22:48:00,38.1,27.7,30.23,East,90,0.0,0.0,66,0.00,,,0.00,WUHU216HW,2013-01-11 03:48:00,
2013-01-10 22:53:00,38.1,27.7,30.23,East,90,0.0,0.0,66,0.00,,,0.00,WUHU216HW,2013-01-11 03:53:00,
2013-01-10 22:58:00,38.1,27.7,30.22,East,90,0.0,0.0,66,0.00,,,0.00,WUHU216HW,2013-01-11 03:58:00,
2013-01-10 23:03:00,38.1,27.7,30.22,East,90,0.0,0.0,66,0.00,,,0.00,WUHU216HW,2013-01-11 04:03:00,
2013-01-10 23:08:00,38.1,27.7,30.22,ESE,113,0.0,0.0,66,0.00,,,0.00,WUHU216HW,2013-01-11 04:08:00,
2013-01-10 23:13:00,38.1,27.7,30.22,East,90,0.0,0.0,66,0.00,,,0.00,WUHU216HW,2013-01-11 04:13:00,
2013-01-10 23:18:00,38.1,27.7,30.22,ESE,113,0.0,0.0,66,0.00,,,0.00,WUHU216HW,2013-01-11 04:18:00,
2013-01-10 23:23:00,38.1,27.7,30.22,ESE,113,0.0,0.0,66,0.00,,,0.00,WUHU216HW,2013-01-11 04:23:00,
2013-01-10 23:28:00,38.1,27.7,30.22,ESE,113,0.0,0.0,66,0.00,,,0.00,WUHU216HW,2013-01-11 04:28:00,
2013-01-10 23:34:00,38.1,27.8,30.22,East,90,0.0,0.0,66,0.00,,,0.00,WUHU216HW,2013-01-11 04:34:00,
2013-01-10 23:39:00,38.3,27.8,30.21,ENE,68,0.0,0.0,66,0.00,,,0.00,WUHU216HW,2013-01-11 04:39:00,
2013-01-10 23:44:00,38.3,27.8,30.21,East,90,0.0,0.0,66,0.00,,,0.00,WUHU216HW,2013-01-11 04:44:00,
2013-01-10 23:49:00,38.3,27.8,30.20,NE,45,0.0,0.0,66,0.00,,,0.00,WUHU216HW,2013-01-11 04:49:00,
2013-01-10 23:54:00,38.3,27.8,30.20,East,90,0.0,0.0,66,0.00,,,0.00,WUHU216HW,2013-01-11 04:54:00,
2013-01-10 23:59:00,38.3,27.8,30.20,East,90,0.0,0.0,66,0.00,,,0.00,WUHU216HW,2013-01-11 04:59:00,